Shang Hua — V3DO3 — position and weather

sailwx.info

Track history (hours):
 
Tides and Currents Weather Stations Pressure Air Temp Water Temp Dewpoint Dewpoint Depression Visibility Wind Speed Wind Dir Waves Ship Positions

Shang Hua

Last reported at 2018-Feb-22 10:33 UTC. Time now 2018-Feb-24 15:43 UTC.
Position N 33°59' E 130°04'.

Length 79 m; draft 4.4 m.

Type: Cargo ship. MMSI: 312564000.

Date/timePositionNaut miles runAvg speedWind from/ knotsBaromVisibWave heightAir tempDewpointWater temp
2018-Feb-22 10:33N 33°59' E 130°04'011.2
2018-Feb-22 10:30N 33°59' E 130°04'511.0
2018-Feb-22 10:00N 33°59' E 130°11'510.4
2018-Feb-22 09:30N 33°58' E 130°17'510.3
2018-Feb-22 09:00N 33°58' E 130°23'510.6
2018-Feb-22 08:30N 33°58' E 130°30'510.2
2018-Feb-22 08:00N 33°58' E 130°36'510.3
2018-Feb-22 07:30N 33°58' E 130°42'5 9.9
2018-Feb-22 07:00N 33°58' E 130°48'5 9.9
2018-Feb-22 06:30N 33°56' E 130°53'4 7.1
2018-Feb-22 06:00N 33°57' E 130°57'5 9.7
2018-Feb-22 05:31N 33°57' E 131°03'611.2
2018-Feb-22 05:00N 33°54' E 131°08'611.1
2018-Feb-22 04:30N 33°52' E 131°14'611.2
2018-Feb-22 04:00N 33°51' E 131°21'611.3
2018-Feb-22 03:30N 33°49' E 131°28'611.3
2018-Feb-22 03:00N 33°48' E 131°34'611.4
2018-Feb-22 02:30N 33°47' E 131°41'611.5
2018-Feb-22 02:00N 33°46' E 131°48'1911.1
2018-Feb-22 00:19N 33°43' E 132°10'311.1
2018-Feb-22 00:00N 33°44' E 132°14'811.2
2018-Feb-21 23:17N 33°46' E 132°23'511.0
2018-Feb-21 22:48N 33°48' E 132°29'411.3
2018-Feb-21 22:27N 33°51' E 132°33'511.6
2018-Feb-21 22:00N 33°54' E 132°37'612.2
2018-Feb-21 21:30N 33°58' E 132°43'77 8.5
2018-Feb-21 12:28N 34°26' E 134°09'1311.0
2018-Feb-21 11:18N 34°26' E 134°25'411.1
2018-Feb-21 10:58N 34°27' E 134°29'510.9
2018-Feb-21 10:30N 34°29' E 134°35'510.7
2018-Feb-21 10:00N 34°31' E 134°41'510.4
2018-Feb-21 09:30N 34°33' E 134°47'5 9.4
2018-Feb-21 09:01N 34°35' E 134°52'4 8.3
2018-Feb-21 08:31N 34°37' E 134°56'4 7.7
2018-Feb-21 08:00N 34°37' E 135°01'4 7.5
2018-Feb-21 07:30N 34°36' E 135°05'510.5
2018-Feb-21 07:01N 34°36' E 135°12'510.5
2018-Feb-21 06:30N 34°36' E 135°18'510.5
2018-Feb-21 06:00N 34°37' E 135°24'1 1.9
2018-Feb-21 05:29N 34°37' E 135°25'0 0.0
2018-Feb-21 04:56N 34°37' E 135°25'0 0.0
2018-Feb-21 04:30N 34°37' E 135°25'0 0.0
2018-Feb-21 04:00N 34°37' E 135°25'0 0.0
2018-Feb-21 03:30N 34°37' E 135°25'0 0.0
2018-Feb-21 03:00N 34°37' E 135°25'0 0.0
2018-Feb-21 02:30N 34°37' E 135°25'0 0.0
2018-Feb-21 01:58N 34°37' E 135°25'0 0.0
2018-Feb-21 01:30N 34°37' E 135°25'0 0.0
2018-Feb-21 01:00N 34°37' E 135°25'0 0.0
2018-Feb-21 00:30N 34°37' E 135°25'0 0.0
2018-Feb-20 23:57N 34°37' E 135°25'0 0.0
2018-Feb-20 23:30N 34°37' E 135°25'0 0.0
2018-Feb-20 22:57N 34°37' E 135°25'0 0.0
2018-Feb-20 22:31N 34°37' E 135°25'0 0.0
2018-Feb-20 21:57N 34°37' E 135°25'0 0.0
2018-Feb-20 21:30N 34°37' E 135°25'0 0.0
2018-Feb-20 20:57N 34°37' E 135°25'0 0.0
2018-Feb-20 20:25N 34°37' E 135°25'0 0.0
2018-Feb-20 19:58N 34°37' E 135°25'0 0.0
2018-Feb-20 19:28N 34°37' E 135°25'0 0.0
2018-Feb-20 18:55N 34°37' E 135°25'0 0.0
2018-Feb-20 18:25N 34°37' E 135°25'0 0.0
2018-Feb-20 17:55N 34°37' E 135°25'0 0.0
2018-Feb-20 17:25N 34°37' E 135°25'0 0.0
2018-Feb-20 16:55N 34°37' E 135°25'0 0.0
2018-Feb-20 16:28N 34°37' E 135°25'0 0.0
2018-Feb-20 15:58N 34°37' E 135°25'0 0.0
2018-Feb-20 15:28N 34°37' E 135°25'0 0.0
2018-Feb-20 14:55N 34°37' E 135°25'0 0.0
2018-Feb-20 14:25N 34°37' E 135°25'0 0.0
2018-Feb-20 13:55N 34°37' E 135°25'0 0.0
2018-Feb-20 13:28N 34°37' E 135°25'0 0.0
2018-Feb-20 12:55N 34°37' E 135°25'0 0.0
2018-Feb-20 12:25N 34°37' E 135°25'0 0.0
2018-Feb-20 11:58N 34°37' E 135°25'0 0.0
2018-Feb-20 11:28N 34°37' E 135°25'0 0.0
2018-Feb-20 11:00N 34°37' E 135°25'0 0.0
2018-Feb-20 10:29N 34°37' E 135°25'0 0.0
2018-Feb-20 09:56N 34°37' E 135°25'0 0.0
2018-Feb-20 09:29N 34°37' E 135°25'0 0.0
2018-Feb-20 08:59N 34°37' E 135°25'0 0.0
2018-Feb-20 08:29N 34°37' E 135°25'0 0.0
2018-Feb-20 08:00N 34°37' E 135°25'0 0.0
2018-Feb-20 07:29N 34°37' E 135°25'0 0.0
2018-Feb-20 06:59N 34°37' E 135°25'0 0.0
2018-Feb-20 06:29N 34°37' E 135°25'0 0.0
2018-Feb-20 05:59N 34°37' E 135°25'0 0.0
2018-Feb-20 05:29N 34°37' E 135°25'0 0.0
2018-Feb-20 04:59N 34°37' E 135°25'0 0.0
2018-Feb-20 04:27N 34°37' E 135°25'0 0.0
2018-Feb-20 04:00N 34°37' E 135°25'0 0.0
2018-Feb-20 03:30N 34°37' E 135°25'0 0.0
2018-Feb-20 03:00N 34°37' E 135°25'0 0.0
2018-Feb-20 02:28N 34°37' E 135°25'0 0.0
2018-Feb-20 02:00N 34°37' E 135°25'0 0.0
2018-Feb-20 01:30N 34°37' E 135°25'0 0.0
2018-Feb-20 00:57N 34°37' E 135°25'0 0.0
2018-Feb-20 00:30N 34°37' E 135°25'0 0.0
2018-Feb-20 00:00N 34°37' E 135°25'0 0.0
2018-Feb-19 23:25N 34°37' E 135°25'0 0.0
2018-Feb-19 22:58N 34°37' E 135°25'0 0.0
2018-Feb-19 22:25N 34°37' E 135°25'0 0.7
2018-Feb-19 22:01N 34°37' E 135°25'2 4.4
2018-Feb-19 21:30N 34°37' E 135°23'0 0.1
2018-Feb-19 20:56N 34°37' E 135°23'0 0.1
2018-Feb-19 20:29N 34°37' E 135°23'0 0.0
2018-Feb-19 19:59N 34°37' E 135°23'0 0.1
2018-Feb-19 19:29N 34°37' E 135°23'0 0.0
2018-Feb-19 18:59N 34°37' E 135°23'0 0.0
2018-Feb-19 18:29N 34°37' E 135°23'0 0.1
2018-Feb-19 18:00N 34°37' E 135°23'0 0.0
2018-Feb-19 17:30N 34°37' E 135°23'0 0.0
2018-Feb-19 16:58N 34°37' E 135°23'0 0.0
2018-Feb-19 16:30N 34°37' E 135°23'0 0.0
2018-Feb-19 16:00N 34°37' E 135°23'0 0.0
2018-Feb-19 15:30N 34°37' E 135°23'0 0.0
2018-Feb-19 15:00N 34°37' E 135°23'0 0.0
2018-Feb-19 14:30N 34°37' E 135°23'0 0.0
2018-Feb-19 14:00N 34°37' E 135°23'0 0.0
2018-Feb-19 13:30N 34°37' E 135°23'0 0.0
2018-Feb-19 12:59N 34°37' E 135°23'0 0.0
2018-Feb-19 12:29N 34°37' E 135°23'0 0.0
2018-Feb-19 11:59N 34°37' E 135°23'0 0.1
2018-Feb-19 11:27N 34°37' E 135°23'0 0.1
2018-Feb-19 10:57N 34°37' E 135°23'0 0.0
2018-Feb-19 10:30N 34°37' E 135°23'0 0.1
2018-Feb-19 10:00N 34°37' E 135°23'0 0.0
2018-Feb-19 09:30N 34°37' E 135°23'2 4.9
2018-Feb-19 09:01N 34°35' E 135°21'5 9.1
2018-Feb-19 08:30N 34°31' E 135°23'0 0.1
2018-Feb-19 08:00N 34°31' E 135°23'0 0.0
2018-Feb-19 07:30N 34°31' E 135°23'0 0.0
2018-Feb-19 07:00N 34°31' E 135°23'0 0.0
2018-Feb-19 06:30N 34°31' E 135°23'0 0.0
2018-Feb-19 06:00N 34°31' E 135°23'0 0.0
2018-Feb-19 05:31N 34°31' E 135°23'0 0.0
2018-Feb-19 05:00N 34°31' E 135°23'0 0.0
2018-Feb-19 04:30N 34°31' E 135°23'0 0.0
2018-Feb-19 04:01N 34°31' E 135°23'0 0.0
2018-Feb-19 03:30N 34°31' E 135°23'0 0.0
2018-Feb-19 03:00N 34°31' E 135°23'0 0.0
2018-Feb-19 02:29N 34°31' E 135°23'0 0.0
2018-Feb-19 02:00N 34°31' E 135°23'0 0.0
2018-Feb-19 01:30N 34°31' E 135°23'0 0.0
2018-Feb-19 01:00N 34°31' E 135°23'0 0.0
2018-Feb-19 00:30N 34°31' E 135°23'0 0.0
2018-Feb-19 00:00N 34°31' E 135°23'0 0.0
2018-Feb-18 23:30N 34°31' E 135°23'0 0.0
2018-Feb-18 23:00N 34°31' E 135°23'0 0.0
2018-Feb-18 22:30N 34°31' E 135°23'0 0.2
2018-Feb-18 22:00N 34°31' E 135°23'2 3.4
2018-Feb-18 21:29N 34°32' E 135°22'0 0.0
2018-Feb-18 20:56N 34°32' E 135°22'0 0.0
2018-Feb-18 20:29N 34°32' E 135°22'0 0.0
2018-Feb-18 19:59N 34°32' E 135°22'0 0.0
2018-Feb-18 19:29N 34°32' E 135°22'0 0.0
2018-Feb-18 18:59N 34°32' E 135°22'0 0.0
2018-Feb-18 18:29N 34°32' E 135°22'0 0.0
2018-Feb-18 17:58N 34°32' E 135°22'0 0.0
2018-Feb-18 17:28N 34°32' E 135°22'0 0.0
2018-Feb-18 16:58N 34°32' E 135°22'0 0.0
2018-Feb-18 16:28N 34°32' E 135°22'0 0.0
2018-Feb-18 15:58N 34°32' E 135°22'0 0.0
2018-Feb-18 15:28N 34°32' E 135°22'0 0.0
2018-Feb-18 14:55N 34°32' E 135°22'0 0.0
2018-Feb-18 14:25N 34°32' E 135°22'0 0.0
2018-Feb-18 13:55N 34°32' E 135°22'0 0.0
2018-Feb-18 13:30N 34°32' E 135°22'0 0.0
2018-Feb-18 12:59N 34°32' E 135°22'0 0.0
2018-Feb-18 12:26N 34°32' E 135°22'0 0.0
2018-Feb-18 11:56N 34°32' E 135°22'0 0.0
2018-Feb-18 11:29N 34°32' E 135°22'0 0.1
2018-Feb-18 10:59N 34°32' E 135°22'0 0.0
2018-Feb-18 10:29N 34°32' E 135°22'0 0.0
2018-Feb-18 09:56N 34°32' E 135°22'0 0.0
2018-Feb-18 09:26N 34°32' E 135°22'0 0.0
2018-Feb-18 08:59N 34°32' E 135°22'0 0.0
2018-Feb-18 08:30N 34°32' E 135°22'0 0.0
2018-Feb-18 08:00N 34°32' E 135°22'0 0.0
2018-Feb-18 07:30N 34°32' E 135°22'0 0.0
2018-Feb-18 07:00N 34°32' E 135°22'0 0.0
2018-Feb-18 06:24N 34°32' E 135°22'0 0.0
2018-Feb-18 05:59N 34°32' E 135°22'0 0.1
2018-Feb-18 05:29N 34°32' E 135°22'0 0.0
2018-Feb-18 05:00N 34°32' E 135°22'0 0.0
2018-Feb-18 04:27N 34°32' E 135°22'0 0.1
2018-Feb-18 04:00N 34°32' E 135°22'0 0.1
2018-Feb-18 03:29N 34°32' E 135°22'0 0.1
2018-Feb-18 02:58N 34°32' E 135°22'0 0.0
2018-Feb-18 02:28N 34°32' E 135°22'0 0.1
2018-Feb-18 01:58N 34°32' E 135°22'0 0.0
2018-Feb-18 01:28N 34°32' E 135°22'0 0.0
2018-Feb-18 00:58N 34°32' E 135°22'0 0.0
2018-Feb-18 00:28N 34°32' E 135°22'0 0.0
2018-Feb-17 23:58N 34°32' E 135°22'0 0.0
2018-Feb-17 23:29N 34°32' E 135°22'0 0.1
2018-Feb-17 22:59N 34°32' E 135°22'0 0.0
2018-Feb-17 22:30N 34°32' E 135°22'0 0.0
2018-Feb-17 22:00N 34°32' E 135°22'0 0.0
2018-Feb-17 21:30N 34°32' E 135°22'0 0.0
2018-Feb-17 21:00N 34°32' E 135°22'0 0.0
2018-Feb-17 20:30N 34°32' E 135°22'0 0.0
2018-Feb-17 20:00N 34°32' E 135°22'0 0.0
2018-Feb-17 19:30N 34°32' E 135°22'0 0.1
2018-Feb-17 19:00N 34°32' E 135°22'0 0.1
2018-Feb-17 18:30N 34°32' E 135°22'0 0.1
2018-Feb-17 17:59N 34°32' E 135°22'0 0.1
2018-Feb-17 17:28N 34°32' E 135°22'0 0.0
2018-Feb-17 16:55N 34°32' E 135°22'0 0.0
2018-Feb-17 16:25N 34°32' E 135°22'0 0.0
2018-Feb-17 15:58N 34°32' E 135°22'0 0.0
2018-Feb-17 15:27N 34°32' E 135°22'0 0.0
2018-Feb-17 14:58N 34°32' E 135°22'0 0.0
2018-Feb-17 14:28N 34°32' E 135°22'0 0.1
2018-Feb-17 13:55N 34°32' E 135°22'0 0.0
2018-Feb-17 13:28N 34°32' E 135°22'0 0.0
2018-Feb-17 12:58N 34°32' E 135°22'0 0.0
2018-Feb-17 12:25N 34°32' E 135°22'0 0.0
2018-Feb-17 11:58N 34°32' E 135°22'0 0.1
2018-Feb-17 11:30N 34°32' E 135°22'0 0.1
2018-Feb-17 10:59N 34°32' E 135°22'0 0.0
2018-Feb-17 10:26N 34°32' E 135°22'0 0.0
2018-Feb-17 09:58N 34°32' E 135°22'0 0.0
2018-Feb-17 09:29N 34°32' E 135°22'0 0.1
2018-Feb-17 08:59N 34°32' E 135°22'0 0.0
2018-Feb-17 08:28N 34°32' E 135°22'0 0.1
2018-Feb-17 07:56N 34°32' E 135°22'0 0.9
2018-Feb-17 07:30N 34°32' E 135°21'4 7.5
2018-Feb-17 07:01N 34°33' E 135°17'611.9
2018-Feb-17 06:30N 34°34' E 135°10'713.2
2018-Feb-17 06:00N 34°36' E 135°02'612.8
2018-Feb-17 05:30N 34°35' E 134°54'612.5
2018-Feb-17 05:00N 34°32' E 134°47'611.5
2018-Feb-17 04:30N 34°30' E 134°41'611.6
2018-Feb-17 04:00N 34°28' E 134°34'611.3
2018-Feb-17 03:30N 34°26' E 134°28'611.4
2018-Feb-17 02:59N 34°24' E 134°21'82 9.4
2018-Feb-16 18:15N 34°01' E 132°46'3 9.2
2018-Feb-16 17:58N 33°59' E 132°44'4 8.9
2018-Feb-16 17:30N 33°56' E 132°41'5 9.3
2018-Feb-16 16:59N 33°53' E 132°36'510.1
2018-Feb-16 16:29N 33°49' E 132°32'610.4
2018-Feb-16 15:56N 33°47' E 132°26'2610.8
2018-Feb-16 13:31N 33°43' E 131°55'311.5
2018-Feb-16 13:16N 33°44' E 131°52'311.6
2018-Feb-16 13:00N 33°44' E 131°48'611.4
2018-Feb-16 12:30N 33°46' E 131°41'611.1
2018-Feb-16 12:00N 33°47' E 131°35'610.9
2018-Feb-16 11:30N 33°48' E 131°28'510.6
2018-Feb-16 11:00N 33°49' E 131°22'510.4
2018-Feb-16 10:30N 33°50' E 131°16'510.0
2018-Feb-16 10:00N 33°52' E 131°10'510.4
2018-Feb-16 09:30N 33°55' E 131°06'510.3
2018-Feb-16 09:00N 33°58' E 131°01'510.9
2018-Feb-16 08:30N 33°55' E 130°56'3 5.0
2018-Feb-16 07:56N 33°54' E 130°53'0 0.0
2018-Feb-16 07:26N 33°54' E 130°53'0 0.0
2018-Feb-16 06:56N 33°54' E 130°53'0 0.0
2018-Feb-16 06:29N 33°54' E 130°53'0 0.0
2018-Feb-16 05:56N 33°54' E 130°53'0 0.0
2018-Feb-16 05:26N 33°54' E 130°53'0 0.0
2018-Feb-16 04:50N 33°54' E 130°53'0 0.0
2018-Feb-16 04:29N 33°54' E 130°53'0 0.0
2018-Feb-16 03:56N 33°54' E 130°53'0 0.0
2018-Feb-16 03:26N 33°54' E 130°53'0 0.0
2018-Feb-16 02:59N 33°54' E 130°53'0 0.0
2018-Feb-16 02:26N 33°54' E 130°53'0 0.0
2018-Feb-16 01:56N 33°54' E 130°53'0 0.0
2018-Feb-16 01:29N 33°54' E 130°53'0 0.0
2018-Feb-16 00:56N 33°54' E 130°53'0 0.0
2018-Feb-16 00:29N 33°54' E 130°53'0 0.0
2018-Feb-15 23:59N 33°54' E 130°53'0 0.0
2018-Feb-15 23:26N 33°54' E 130°53'0 0.0
2018-Feb-15 22:59N 33°54' E 130°53'0 0.0
2018-Feb-15 22:29N 33°54' E 130°53'0 0.0
2018-Feb-15 21:59N 33°54' E 130°53'0 0.0
2018-Feb-15 21:26N 33°54' E 130°53'0 0.0
2018-Feb-15 20:56N 33°54' E 130°53'0 0.0
2018-Feb-15 20:26N 33°54' E 130°53'0 0.0
2018-Feb-15 19:59N 33°54' E 130°53'0 0.0
2018-Feb-15 19:26N 33°54' E 130°53'0 0.0
2018-Feb-15 18:56N 33°54' E 130°53'0 0.0
2018-Feb-15 18:26N 33°54' E 130°53'0 0.0
2018-Feb-15 17:50N 33°54' E 130°53'0 0.0
2018-Feb-15 17:26N 33°54' E 130°53'0 0.0
2018-Feb-15 16:59N 33°54' E 130°53'0 0.0
2018-Feb-15 16:26N 33°54' E 130°53'0 0.0
2018-Feb-15 15:56N 33°54' E 130°53'0 0.0
2018-Feb-15 15:26N 33°54' E 130°53'0 0.0
2018-Feb-15 14:56N 33°54' E 130°53'0 0.0
2018-Feb-15 14:26N 33°54' E 130°53'0 0.0
2018-Feb-15 13:56N 33°54' E 130°53'0 0.0
2018-Feb-15 13:26N 33°54' E 130°53'0 0.0
2018-Feb-15 12:56N 33°54' E 130°53'0 0.0
2018-Feb-15 12:26N 33°54' E 130°53'0 0.0
2018-Feb-15 11:59N 33°54' E 130°53'0 0.0
2018-Feb-15 11:29N 33°54' E 130°53'0 0.0
2018-Feb-15 10:56N 33°54' E 130°53'0 0.0
2018-Feb-15 10:26N 33°54' E 130°53'0 0.0
2018-Feb-15 09:56N 33°54' E 130°53'0 0.0
2018-Feb-15 09:26N 33°54' E 130°53'0 0.0
2018-Feb-15 08:59N 33°54' E 130°53'0 0.0
2018-Feb-15 08:29N 33°54' E 130°53'0 0.0
2018-Feb-15 07:56N 33°54' E 130°53'0 0.0
2018-Feb-15 07:29N 33°54' E 130°53'0 0.0
2018-Feb-15 06:59N 33°54' E 130°53'0 0.0
2018-Feb-15 06:20N 33°54' E 130°53'0 0.0
2018-Feb-15 05:56N 33°54' E 130°53'0 0.0
2018-Feb-15 05:29N 33°54' E 130°53'0 0.0
2018-Feb-15 04:56N 33°54' E 130°53'0 0.0
2018-Feb-15 04:26N 33°54' E 130°53'0 0.0
2018-Feb-15 03:56N 33°54' E 130°53'0 0.0
2018-Feb-15 03:26N 33°54' E 130°53'0 0.0
2018-Feb-15 02:56N 33°54' E 130°53'0 0.0
2018-Feb-15 02:26N 33°54' E 130°53'0 0.0
2018-Feb-15 01:59N 33°54' E 130°53'0 0.0
2018-Feb-15 01:29N 33°54' E 130°53'1 2.3
2018-Feb-15 01:00N 33°55' E 130°53'3 5.8
2018-Feb-15 00:30N 33°58' E 130°52'4 8.7
2018-Feb-15 00:00N 34°02' E 130°50'2 4.6
2018-Feb-14 23:30N 33°60' E 130°52'3 5.1
2018-Feb-14 23:00N 34°02' E 130°50'2 3.7
2018-Feb-14 22:30N 34°02' E 130°48'5 9.9
2018-Feb-14 22:00N 34°03' E 130°42'510.1
2018-Feb-14 21:30N 34°02' E 130°36'5 9.9
2018-Feb-14 21:00N 34°02' E 130°30'5 9.7
2018-Feb-14 20:30N 34°02' E 130°24'5 9.9
2018-Feb-14 20:00N 34°02' E 130°18'5 9.9
2018-Feb-14 19:30N 34°02' E 130°12'5 9.8
2018-Feb-14 19:00N 34°02' E 130°06'461 9.0
2018-Feb-12 15:37N 37°49' E 121°50'411.1
2018-Feb-12 15:17N 37°50' E 121°46'311.2
2018-Feb-12 15:01N 37°51' E 121°42'611.0
2018-Feb-12 14:29N 37°52' E 121°35'510.8
2018-Feb-12 14:00N 37°53' E 121°28'610.8
2018-Feb-12 13:29N 37°54' E 121°21'  
Track history (hours):
 
Tides and Currents Weather Stations Pressure Air Temp Water Temp Dewpoint Dewpoint Depression Visibility Wind Speed Wind Dir Waves Ship Positions

Shang Hua

Last reported at 2018-Feb-22 10:33 UTC. Time now 2018-Feb-24 15:43 UTC.
Position N 33°59' E 130°04'.

Length 79 m; draft 4.4 m.

Type: Cargo ship. MMSI: 312564000.

Date/timePositionNaut miles runAvg speedWind from/ knotsBaromVisibWave heightAir tempDewpointWater temp
2018-Feb-22 10:33N 33°59' E 130°04'011.2
2018-Feb-22 10:30N 33°59' E 130°04'511.0
2018-Feb-22 10:00N 33°59' E 130°11'510.4
2018-Feb-22 09:30N 33°58' E 130°17'510.3
2018-Feb-22 09:00N 33°58' E 130°23'510.6
2018-Feb-22 08:30N 33°58' E 130°30'510.2
2018-Feb-22 08:00N 33°58' E 130°36'510.3
2018-Feb-22 07:30N 33°58' E 130°42'5 9.9
2018-Feb-22 07:00N 33°58' E 130°48'5 9.9
2018-Feb-22 06:30N 33°56' E 130°53'4 7.1
2018-Feb-22 06:00N 33°57' E 130°57'5 9.7
2018-Feb-22 05:31N 33°57' E 131°03'611.2
2018-Feb-22 05:00N 33°54' E 131°08'611.1
2018-Feb-22 04:30N 33°52' E 131°14'611.2
2018-Feb-22 04:00N 33°51' E 131°21'611.3
2018-Feb-22 03:30N 33°49' E 131°28'611.3
2018-Feb-22 03:00N 33°48' E 131°34'611.4
2018-Feb-22 02:30N 33°47' E 131°41'611.5
2018-Feb-22 02:00N 33°46' E 131°48'1911.1
2018-Feb-22 00:19N 33°43' E 132°10'311.1
2018-Feb-22 00:00N 33°44' E 132°14'811.2
2018-Feb-21 23:17N 33°46' E 132°23'511.0
2018-Feb-21 22:48N 33°48' E 132°29'411.3
2018-Feb-21 22:27N 33°51' E 132°33'511.6
2018-Feb-21 22:00N 33°54' E 132°37'612.2
2018-Feb-21 21:30N 33°58' E 132°43'77 8.5
2018-Feb-21 12:28N 34°26' E 134°09'1311.0
2018-Feb-21 11:18N 34°26' E 134°25'411.1
2018-Feb-21 10:58N 34°27' E 134°29'510.9
2018-Feb-21 10:30N 34°29' E 134°35'510.7
2018-Feb-21 10:00N 34°31' E 134°41'510.4
2018-Feb-21 09:30N 34°33' E 134°47'5 9.4
2018-Feb-21 09:01N 34°35' E 134°52'4 8.3
2018-Feb-21 08:31N 34°37' E 134°56'4 7.7
2018-Feb-21 08:00N 34°37' E 135°01'4 7.5
2018-Feb-21 07:30N 34°36' E 135°05'510.5
2018-Feb-21 07:01N 34°36' E 135°12'510.5
2018-Feb-21 06:30N 34°36' E 135°18'510.5
2018-Feb-21 06:00N 34°37' E 135°24'1 1.9
2018-Feb-21 05:29N 34°37' E 135°25'0 0.0
2018-Feb-21 04:56N 34°37' E 135°25'0 0.0
2018-Feb-21 04:30N 34°37' E 135°25'0 0.0
2018-Feb-21 04:00N 34°37' E 135°25'0 0.0
2018-Feb-21 03:30N 34°37' E 135°25'0 0.0
2018-Feb-21 03:00N 34°37' E 135°25'0 0.0
2018-Feb-21 02:30N 34°37' E 135°25'0 0.0
2018-Feb-21 01:58N 34°37' E 135°25'0 0.0
2018-Feb-21 01:30N 34°37' E 135°25'0 0.0
2018-Feb-21 01:00N 34°37' E 135°25'0 0.0
2018-Feb-21 00:30N 34°37' E 135°25'0 0.0
2018-Feb-20 23:57N 34°37' E 135°25'0 0.0
2018-Feb-20 23:30N 34°37' E 135°25'0 0.0
2018-Feb-20 22:57N 34°37' E 135°25'0 0.0
2018-Feb-20 22:31N 34°37' E 135°25'0 0.0
2018-Feb-20 21:57N 34°37' E 135°25'0 0.0
2018-Feb-20 21:30N 34°37' E 135°25'0 0.0
2018-Feb-20 20:57N 34°37' E 135°25'0 0.0
2018-Feb-20 20:25N 34°37' E 135°25'0 0.0
2018-Feb-20 19:58N 34°37' E 135°25'0 0.0
2018-Feb-20 19:28N 34°37' E 135°25'0 0.0
2018-Feb-20 18:55N 34°37' E 135°25'0 0.0
2018-Feb-20 18:25N 34°37' E 135°25'0 0.0
2018-Feb-20 17:55N 34°37' E 135°25'0 0.0
2018-Feb-20 17:25N 34°37' E 135°25'0 0.0
2018-Feb-20 16:55N 34°37' E 135°25'0 0.0
2018-Feb-20 16:28N 34°37' E 135°25'0 0.0
2018-Feb-20 15:58N 34°37' E 135°25'0 0.0
2018-Feb-20 15:28N 34°37' E 135°25'0 0.0
2018-Feb-20 14:55N 34°37' E 135°25'0 0.0
2018-Feb-20 14:25N 34°37' E 135°25'0 0.0
2018-Feb-20 13:55N 34°37' E 135°25'0 0.0
2018-Feb-20 13:28N 34°37' E 135°25'0 0.0
2018-Feb-20 12:55N 34°37' E 135°25'0 0.0
2018-Feb-20 12:25N 34°37' E 135°25'0 0.0
2018-Feb-20 11:58N 34°37' E 135°25'0 0.0
2018-Feb-20 11:28N 34°37' E 135°25'0 0.0
2018-Feb-20 11:00N 34°37' E 135°25'0 0.0
2018-Feb-20 10:29N 34°37' E 135°25'0 0.0
2018-Feb-20 09:56N 34°37' E 135°25'0 0.0
2018-Feb-20 09:29N 34°37' E 135°25'0 0.0
2018-Feb-20 08:59N 34°37' E 135°25'0 0.0
2018-Feb-20 08:29N 34°37' E 135°25'0 0.0
2018-Feb-20 08:00N 34°37' E 135°25'0 0.0
2018-Feb-20 07:29N 34°37' E 135°25'0 0.0
2018-Feb-20 06:59N 34°37' E 135°25'0 0.0
2018-Feb-20 06:29N 34°37' E 135°25'0 0.0
2018-Feb-20 05:59N 34°37' E 135°25'0 0.0
2018-Feb-20 05:29N 34°37' E 135°25'0 0.0
2018-Feb-20 04:59N 34°37' E 135°25'0 0.0
2018-Feb-20 04:27N 34°37' E 135°25'0 0.0
2018-Feb-20 04:00N 34°37' E 135°25'0 0.0
2018-Feb-20 03:30N 34°37' E 135°25'0 0.0
2018-Feb-20 03:00N 34°37' E 135°25'0 0.0
2018-Feb-20 02:28N 34°37' E 135°25'0 0.0
2018-Feb-20 02:00N 34°37' E 135°25'0 0.0
2018-Feb-20 01:30N 34°37' E 135°25'0 0.0
2018-Feb-20 00:57N 34°37' E 135°25'0 0.0
2018-Feb-20 00:30N 34°37' E 135°25'0 0.0
2018-Feb-20 00:00N 34°37' E 135°25'0 0.0
2018-Feb-19 23:25N 34°37' E 135°25'0 0.0
2018-Feb-19 22:58N 34°37' E 135°25'0 0.0
2018-Feb-19 22:25N 34°37' E 135°25'0 0.7
2018-Feb-19 22:01N 34°37' E 135°25'2 4.4
2018-Feb-19 21:30N 34°37' E 135°23'0 0.1
2018-Feb-19 20:56N 34°37' E 135°23'0 0.1
2018-Feb-19 20:29N 34°37' E 135°23'0 0.0
2018-Feb-19 19:59N 34°37' E 135°23'0 0.1
2018-Feb-19 19:29N 34°37' E 135°23'0 0.0
2018-Feb-19 18:59N 34°37' E 135°23'0 0.0
2018-Feb-19 18:29N 34°37' E 135°23'0 0.1
2018-Feb-19 18:00N 34°37' E 135°23'0 0.0
2018-Feb-19 17:30N 34°37' E 135°23'0 0.0
2018-Feb-19 16:58N 34°37' E 135°23'0 0.0
2018-Feb-19 16:30N 34°37' E 135°23'0 0.0
2018-Feb-19 16:00N 34°37' E 135°23'0 0.0
2018-Feb-19 15:30N 34°37' E 135°23'0 0.0
2018-Feb-19 15:00N 34°37' E 135°23'0 0.0
2018-Feb-19 14:30N 34°37' E 135°23'0 0.0
2018-Feb-19 14:00N 34°37' E 135°23'0 0.0
2018-Feb-19 13:30N 34°37' E 135°23'0 0.0
2018-Feb-19 12:59N 34°37' E 135°23'0 0.0
2018-Feb-19 12:29N 34°37' E 135°23'0 0.0
2018-Feb-19 11:59N 34°37' E 135°23'0 0.1
2018-Feb-19 11:27N 34°37' E 135°23'0 0.1
2018-Feb-19 10:57N 34°37' E 135°23'0 0.0
2018-Feb-19 10:30N 34°37' E 135°23'0 0.1
2018-Feb-19 10:00N 34°37' E 135°23'0 0.0
2018-Feb-19 09:30N 34°37' E 135°23'2 4.9
2018-Feb-19 09:01N 34°35' E 135°21'5 9.1
2018-Feb-19 08:30N 34°31' E 135°23'0 0.1
2018-Feb-19 08:00N 34°31' E 135°23'0 0.0
2018-Feb-19 07:30N 34°31' E 135°23'0 0.0
2018-Feb-19 07:00N 34°31' E 135°23'0 0.0
2018-Feb-19 06:30N 34°31' E 135°23'0 0.0
2018-Feb-19 06:00N 34°31' E 135°23'0 0.0
2018-Feb-19 05:31N 34°31' E 135°23'0 0.0
2018-Feb-19 05:00N 34°31' E 135°23'0 0.0
2018-Feb-19 04:30N 34°31' E 135°23'0 0.0
2018-Feb-19 04:01N 34°31' E 135°23'0 0.0
2018-Feb-19 03:30N 34°31' E 135°23'0 0.0
2018-Feb-19 03:00N 34°31' E 135°23'0 0.0
2018-Feb-19 02:29N 34°31' E 135°23'0 0.0
2018-Feb-19 02:00N 34°31' E 135°23'0 0.0
2018-Feb-19 01:30N 34°31' E 135°23'0 0.0
2018-Feb-19 01:00N 34°31' E 135°23'0 0.0
2018-Feb-19 00:30N 34°31' E 135°23'0 0.0
2018-Feb-19 00:00N 34°31' E 135°23'0 0.0
2018-Feb-18 23:30N 34°31' E 135°23'0 0.0
2018-Feb-18 23:00N 34°31' E 135°23'0 0.0
2018-Feb-18 22:30N 34°31' E 135°23'0 0.2
2018-Feb-18 22:00N 34°31' E 135°23'2 3.4
2018-Feb-18 21:29N 34°32' E 135°22'0 0.0
2018-Feb-18 20:56N 34°32' E 135°22'0 0.0
2018-Feb-18 20:29N 34°32' E 135°22'0 0.0
2018-Feb-18 19:59N 34°32' E 135°22'0 0.0
2018-Feb-18 19:29N 34°32' E 135°22'0 0.0
2018-Feb-18 18:59N 34°32' E 135°22'0 0.0
2018-Feb-18 18:29N 34°32' E 135°22'0 0.0
2018-Feb-18 17:58N 34°32' E 135°22'0 0.0
2018-Feb-18 17:28N 34°32' E 135°22'0 0.0
2018-Feb-18 16:58N 34°32' E 135°22'0 0.0
2018-Feb-18 16:28N 34°32' E 135°22'0 0.0
2018-Feb-18 15:58N 34°32' E 135°22'0 0.0
2018-Feb-18 15:28N 34°32' E 135°22'0 0.0
2018-Feb-18 14:55N 34°32' E 135°22'0 0.0
2018-Feb-18 14:25N 34°32' E 135°22'0 0.0
2018-Feb-18 13:55N 34°32' E 135°22'0 0.0
2018-Feb-18 13:30N 34°32' E 135°22'0 0.0
2018-Feb-18 12:59N 34°32' E 135°22'0 0.0
2018-Feb-18 12:26N 34°32' E 135°22'0 0.0
2018-Feb-18 11:56N 34°32' E 135°22'0 0.0
2018-Feb-18 11:29N 34°32' E 135°22'0 0.1
2018-Feb-18 10:59N 34°32' E 135°22'0 0.0
2018-Feb-18 10:29N 34°32' E 135°22'0 0.0
2018-Feb-18 09:56N 34°32' E 135°22'0 0.0
2018-Feb-18 09:26N 34°32' E 135°22'0 0.0
2018-Feb-18 08:59N 34°32' E 135°22'0 0.0
2018-Feb-18 08:30N 34°32' E 135°22'0 0.0
2018-Feb-18 08:00N 34°32' E 135°22'0 0.0
2018-Feb-18 07:30N 34°32' E 135°22'0 0.0
2018-Feb-18 07:00N 34°32' E 135°22'0 0.0
2018-Feb-18 06:24N 34°32' E 135°22'0 0.0
2018-Feb-18 05:59N 34°32' E 135°22'0 0.1
2018-Feb-18 05:29N 34°32' E 135°22'0 0.0
2018-Feb-18 05:00N 34°32' E 135°22'0 0.0
2018-Feb-18 04:27N 34°32' E 135°22'0 0.1
2018-Feb-18 04:00N 34°32' E 135°22'0 0.1
2018-Feb-18 03:29N 34°32' E 135°22'0 0.1
2018-Feb-18 02:58N 34°32' E 135°22'0 0.0
2018-Feb-18 02:28N 34°32' E 135°22'0 0.1
2018-Feb-18 01:58N 34°32' E 135°22'0 0.0
2018-Feb-18 01:28N 34°32' E 135°22'0 0.0
2018-Feb-18 00:58N 34°32' E 135°22'0 0.0
2018-Feb-18 00:28N 34°32' E 135°22'0 0.0
2018-Feb-17 23:58N 34°32' E 135°22'0 0.0
2018-Feb-17 23:29N 34°32' E 135°22'0 0.1
2018-Feb-17 22:59N 34°32' E 135°22'0 0.0
2018-Feb-17 22:30N 34°32' E 135°22'0 0.0
2018-Feb-17 22:00N 34°32' E 135°22'0 0.0
2018-Feb-17 21:30N 34°32' E 135°22'0 0.0
2018-Feb-17 21:00N 34°32' E 135°22'0 0.0
2018-Feb-17 20:30N 34°32' E 135°22'0 0.0
2018-Feb-17 20:00N 34°32' E 135°22'0 0.0
2018-Feb-17 19:30N 34°32' E 135°22'0 0.1
2018-Feb-17 19:00N 34°32' E 135°22'0 0.1
2018-Feb-17 18:30N 34°32' E 135°22'0 0.1
2018-Feb-17 17:59N 34°32' E 135°22'0 0.1
2018-Feb-17 17:28N 34°32' E 135°22'0 0.0
2018-Feb-17 16:55N 34°32' E 135°22'0 0.0
2018-Feb-17 16:25N 34°32' E 135°22'0 0.0
2018-Feb-17 15:58N 34°32' E 135°22'0 0.0
2018-Feb-17 15:27N 34°32' E 135°22'0 0.0
2018-Feb-17 14:58N 34°32' E 135°22'0 0.0
2018-Feb-17 14:28N 34°32' E 135°22'0 0.1
2018-Feb-17 13:55N 34°32' E 135°22'0 0.0
2018-Feb-17 13:28N 34°32' E 135°22'0 0.0
2018-Feb-17 12:58N 34°32' E 135°22'0 0.0
2018-Feb-17 12:25N 34°32' E 135°22'0 0.0
2018-Feb-17 11:58N 34°32' E 135°22'0 0.1
2018-Feb-17 11:30N 34°32' E 135°22'0 0.1
2018-Feb-17 10:59N 34°32' E 135°22'0 0.0
2018-Feb-17 10:26N 34°32' E 135°22'0 0.0
2018-Feb-17 09:58N 34°32' E 135°22'0 0.0
2018-Feb-17 09:29N 34°32' E 135°22'0 0.1
2018-Feb-17 08:59N 34°32' E 135°22'0 0.0
2018-Feb-17 08:28N 34°32' E 135°22'0 0.1
2018-Feb-17 07:56N 34°32' E 135°22'0 0.9
2018-Feb-17 07:30N 34°32' E 135°21'4 7.5
2018-Feb-17 07:01N 34°33' E 135°17'611.9
2018-Feb-17 06:30N 34°34' E 135°10'713.2
2018-Feb-17 06:00N 34°36' E 135°02'612.8
2018-Feb-17 05:30N 34°35' E 134°54'612.5
2018-Feb-17 05:00N 34°32' E 134°47'611.5
2018-Feb-17 04:30N 34°30' E 134°41'611.6
2018-Feb-17 04:00N 34°28' E 134°34'611.3
2018-Feb-17 03:30N 34°26' E 134°28'611.4
2018-Feb-17 02:59N 34°24' E 134°21'82 9.4
2018-Feb-16 18:15N 34°01' E 132°46'3 9.2
2018-Feb-16 17:58N 33°59' E 132°44'4 8.9
2018-Feb-16 17:30N 33°56' E 132°41'5 9.3
2018-Feb-16 16:59N 33°53' E 132°36'510.1
2018-Feb-16 16:29N 33°49' E 132°32'610.4
2018-Feb-16 15:56N 33°47' E 132°26'2610.8
2018-Feb-16 13:31N 33°43' E 131°55'311.5
2018-Feb-16 13:16N 33°44' E 131°52'311.6
2018-Feb-16 13:00N 33°44' E 131°48'611.4
2018-Feb-16 12:30N 33°46' E 131°41'611.1
2018-Feb-16 12:00N 33°47' E 131°35'610.9
2018-Feb-16 11:30N 33°48' E 131°28'510.6
2018-Feb-16 11:00N 33°49' E 131°22'510.4
2018-Feb-16 10:30N 33°50' E 131°16'510.0
2018-Feb-16 10:00N 33°52' E 131°10'510.4
2018-Feb-16 09:30N 33°55' E 131°06'510.3
2018-Feb-16 09:00N 33°58' E 131°01'510.9
2018-Feb-16 08:30N 33°55' E 130°56'3 5.0
2018-Feb-16 07:56N 33°54' E 130°53'0 0.0
2018-Feb-16 07:26N 33°54' E 130°53'0 0.0
2018-Feb-16 06:56N 33°54' E 130°53'0 0.0
2018-Feb-16 06:29N 33°54' E 130°53'0 0.0
2018-Feb-16 05:56N 33°54' E 130°53'0 0.0
2018-Feb-16 05:26N 33°54' E 130°53'0 0.0
2018-Feb-16 04:50N 33°54' E 130°53'0 0.0
2018-Feb-16 04:29N 33°54' E 130°53'0 0.0
2018-Feb-16 03:56N 33°54' E 130°53'0 0.0
2018-Feb-16 03:26N 33°54' E 130°53'0 0.0
2018-Feb-16 02:59N 33°54' E 130°53'0 0.0
2018-Feb-16 02:26N 33°54' E 130°53'0 0.0
2018-Feb-16 01:56N 33°54' E 130°53'0 0.0
2018-Feb-16 01:29N 33°54' E 130°53'0 0.0
2018-Feb-16 00:56N 33°54' E 130°53'0 0.0
2018-Feb-16 00:29N 33°54' E 130°53'0 0.0
2018-Feb-15 23:59N 33°54' E 130°53'0 0.0
2018-Feb-15 23:26N 33°54' E 130°53'0 0.0
2018-Feb-15 22:59N 33°54' E 130°53'0 0.0
2018-Feb-15 22:29N 33°54' E 130°53'0 0.0
2018-Feb-15 21:59N 33°54' E 130°53'0 0.0
2018-Feb-15 21:26N 33°54' E 130°53'0 0.0
2018-Feb-15 20:56N 33°54' E 130°53'0 0.0
2018-Feb-15 20:26N 33°54' E 130°53'0 0.0
2018-Feb-15 19:59N 33°54' E 130°53'0 0.0
2018-Feb-15 19:26N 33°54' E 130°53'0 0.0
2018-Feb-15 18:56N 33°54' E 130°53'0 0.0
2018-Feb-15 18:26N 33°54' E 130°53'0 0.0
2018-Feb-15 17:50N 33°54' E 130°53'0 0.0
2018-Feb-15 17:26N 33°54' E 130°53'0 0.0
2018-Feb-15 16:59N 33°54' E 130°53'0 0.0
2018-Feb-15 16:26N 33°54' E 130°53'0 0.0
2018-Feb-15 15:56N 33°54' E 130°53'0 0.0
2018-Feb-15 15:26N 33°54' E 130°53'0 0.0
2018-Feb-15 14:56N 33°54' E 130°53'0 0.0
2018-Feb-15 14:26N 33°54' E 130°53'0 0.0
2018-Feb-15 13:56N 33°54' E 130°53'0 0.0
2018-Feb-15 13:26N 33°54' E 130°53'0 0.0
2018-Feb-15 12:56N 33°54' E 130°53'0 0.0
2018-Feb-15 12:26N 33°54' E 130°53'0 0.0
2018-Feb-15 11:59N 33°54' E 130°53'0 0.0
2018-Feb-15 11:29N 33°54' E 130°53'0 0.0
2018-Feb-15 10:56N 33°54' E 130°53'0 0.0
2018-Feb-15 10:26N 33°54' E 130°53'0 0.0
2018-Feb-15 09:56N 33°54' E 130°53'0 0.0
2018-Feb-15 09:26N 33°54' E 130°53'0 0.0
2018-Feb-15 08:59N 33°54' E 130°53'0 0.0
2018-Feb-15 08:29N 33°54' E 130°53'0 0.0
2018-Feb-15 07:56N 33°54' E 130°53'0 0.0
2018-Feb-15 07:29N 33°54' E 130°53'0 0.0
2018-Feb-15 06:59N 33°54' E 130°53'0 0.0
2018-Feb-15 06:20N 33°54' E 130°53'0 0.0
2018-Feb-15 05:56N 33°54' E 130°53'0 0.0
2018-Feb-15 05:29N 33°54' E 130°53'0 0.0
2018-Feb-15 04:56N 33°54' E 130°53'0 0.0
2018-Feb-15 04:26N 33°54' E 130°53'0 0.0
2018-Feb-15 03:56N 33°54' E 130°53'0 0.0
2018-Feb-15 03:26N 33°54' E 130°53'0 0.0
2018-Feb-15 02:56N 33°54' E 130°53'0 0.0
2018-Feb-15 02:26N 33°54' E 130°53'0 0.0
2018-Feb-15 01:59N 33°54' E 130°53'0 0.0
2018-Feb-15 01:29N 33°54' E 130°53'1 2.3
2018-Feb-15 01:00N 33°55' E 130°53'3 5.8
2018-Feb-15 00:30N 33°58' E 130°52'4 8.7
2018-Feb-15 00:00N 34°02' E 130°50'2 4.6
2018-Feb-14 23:30N 33°60' E 130°52'3 5.1
2018-Feb-14 23:00N 34°02' E 130°50'2 3.7
2018-Feb-14 22:30N 34°02' E 130°48'5 9.9
2018-Feb-14 22:00N 34°03' E 130°42'510.1
2018-Feb-14 21:30N 34°02' E 130°36'5 9.9
2018-Feb-14 21:00N 34°02' E 130°30'5 9.7
2018-Feb-14 20:30N 34°02' E 130°24'5 9.9
2018-Feb-14 20:00N 34°02' E 130°18'5 9.9
2018-Feb-14 19:30N 34°02' E 130°12'5 9.8
2018-Feb-14 19:00N 34°02' E 130°06'461 9.0
2018-Feb-12 15:37N 37°49' E 121°50'411.1
2018-Feb-12 15:17N 37°50' E 121°46'311.2
2018-Feb-12 15:01N 37°51' E 121°42'611.0
2018-Feb-12 14:29N 37°52' E 121°35'510.8
2018-Feb-12 14:00N 37°53' E 121°28'610.8
2018-Feb-12 13:29N 37°54' E 121°21'  

Dump ship's entire track history